sensor_id;sensor_type;location;lat;lon;timestamp;temperature;humidity
46085;DHT22;31823;47.032;8.310;2023-12-28T00:01:26;0.40;99.90
46085;DHT22;31823;47.032;8.310;2023-12-28T00:03:52;0.30;99.90
46085;DHT22;31823;47.032;8.310;2023-12-28T00:06:18;0.30;99.90
46085;DHT22;31823;47.032;8.310;2023-12-28T00:08:43;0.40;99.90
46085;DHT22;31823;47.032;8.310;2023-12-28T00:11:09;0.40;99.90
46085;DHT22;31823;47.032;8.310;2023-12-28T00:13:35;0.30;99.90
46085;DHT22;31823;47.032;8.310;2023-12-28T00:16:00;0.40;99.90
46085;DHT22;31823;47.032;8.310;2023-12-28T00:18:26;0.40;99.90
46085;DHT22;31823;47.032;8.310;2023-12-28T00:20:52;0.20;99.90
46085;DHT22;31823;47.032;8.310;2023-12-28T00:23:18;0.20;99.90
46085;DHT22;31823;47.032;8.310;2023-12-28T00:25:45;0.30;99.90
46085;DHT22;31823;47.032;8.310;2023-12-28T00:28:11;0.20;99.90
46085;DHT22;31823;47.032;8.310;2023-12-28T00:30:37;0.30;99.90
46085;DHT22;31823;47.032;8.310;2023-12-28T00:33:02;0.30;99.90
46085;DHT22;31823;47.032;8.310;2023-12-28T00:35:28;0.30;99.90
46085;DHT22;31823;47.032;8.310;2023-12-28T00:37:54;0.20;99.90
46085;DHT22;31823;47.032;8.310;2023-12-28T00:40:19;0.30;99.90
46085;DHT22;31823;47.032;8.310;2023-12-28T00:42:45;0.30;99.90
46085;DHT22;31823;47.032;8.310;2023-12-28T00:45:11;0.30;99.90
46085;DHT22;31823;47.032;8.310;2023-12-28T00:47:37;0.30;99.90
46085;DHT22;31823;47.032;8.310;2023-12-28T00:50:02;0.30;99.90
46085;DHT22;31823;47.032;8.310;2023-12-28T00:52:28;0.20;99.90
46085;DHT22;31823;47.032;8.310;2023-12-28T00:54:54;0.40;99.90
46085;DHT22;31823;47.032;8.310;2023-12-28T00:57:19;0.40;99.90
46085;DHT22;31823;47.032;8.310;2023-12-28T00:59:45;0.30;99.90
46085;DHT22;31823;47.032;8.310;2023-12-28T01:02:10;0.40;99.90
46085;DHT22;31823;47.032;8.310;2023-12-28T01:04:36;0.50;99.90
46085;DHT22;31823;47.032;8.310;2023-12-28T01:07:01;0.40;99.90
46085;DHT22;31823;47.032;8.310;2023-12-28T01:09:30;0.40;99.90
46085;DHT22;31823;47.032;8.310;2023-12-28T01:11:58;0.40;99.90
46085;DHT22;31823;47.032;8.310;2023-12-28T01:14:23;0.40;99.90
46085;DHT22;31823;47.032;8.310;2023-12-28T01:16:49;0.20;99.90
46085;DHT22;31823;47.032;8.310;2023-12-28T01:19:15;0.20;99.90
46085;DHT22;31823;47.032;8.310;2023-12-28T01:21:40;0.10;99.90
46085;DHT22;31823;47.032;8.310;2023-12-28T01:24:06;0.00;99.90
46085;DHT22;31823;47.032;8.310;2023-12-28T01:26:32;0.00;99.90
46085;DHT22;31823;47.032;8.310;2023-12-28T01:28:57;0.00;99.90
46085;DHT22;31823;47.032;8.310;2023-12-28T01:31:23;0.20;99.90
46085;DHT22;31823;47.032;8.310;2023-12-28T01:33:48;0.10;99.90
46085;DHT22;31823;47.032;8.310;2023-12-28T01:36:21;0.10;99.90
46085;DHT22;31823;47.032;8.310;2023-12-28T01:38:47;0.10;99.90
46085;DHT22;31823;47.032;8.310;2023-12-28T01:41:13;0.10;99.90
46085;DHT22;31823;47.032;8.310;2023-12-28T01:43:41;0.10;99.90
46085;DHT22;31823;47.032;8.310;2023-12-28T01:46:10;0.10;99.90
46085;DHT22;31823;47.032;8.310;2023-12-28T01:48:39;0.30;99.90
46085;DHT22;31823;47.032;8.310;2023-12-28T01:51:06;0.30;99.90
46085;DHT22;31823;47.032;8.310;2023-12-28T01:53:32;0.30;99.90
46085;DHT22;31823;47.032;8.310;2023-12-28T01:55:58;0.40;99.90
46085;DHT22;31823;47.032;8.310;2023-12-28T01:58:24;0.40;99.90
46085;DHT22;31823;47.032;8.310;2023-12-28T02:00:51;0.30;99.90
46085;DHT22;31823;47.032;8.310;2023-12-28T02:03:17;0.30;99.90
46085;DHT22;31823;47.032;8.310;2023-12-28T02:05:43;0.40;99.90
46085;DHT22;31823;47.032;8.310;2023-12-28T02:08:08;0.40;99.90
46085;DHT22;31823;47.032;8.310;2023-12-28T02:10:34;0.30;99.90
46085;DHT22;31823;47.032;8.310;2023-12-28T02:12:59;0.30;99.90
46085;DHT22;31823;47.032;8.310;2023-12-28T02:15:25;0.40;99.90
46085;DHT22;31823;47.032;8.310;2023-12-28T02:20:36;0.40;99.90
46085;DHT22;31823;47.032;8.310;2023-12-28T02:23:03;0.40;99.90
46085;DHT22;31823;47.032;8.310;2023-12-28T02:25:29;0.10;99.90
46085;DHT22;31823;47.032;8.310;2023-12-28T02:27:55;0.10;99.90
46085;DHT22;31823;47.032;8.310;2023-12-28T02:30:22;0.20;99.90
46085;DHT22;31823;47.032;8.310;2023-12-28T02:35:57;0.20;99.90
46085;DHT22;31823;47.032;8.310;2023-12-28T02:38:24;0.20;99.90
46085;DHT22;31823;47.032;8.310;2023-12-28T02:40:51;0.30;99.90
46085;DHT22;31823;47.032;8.310;2023-12-28T02:43:20;0.10;99.90
46085;DHT22;31823;47.032;8.310;2023-12-28T02:45:45;0.00;99.90
46085;DHT22;31823;47.032;8.310;2023-12-28T02:48:11;0.00;99.90
46085;DHT22;31823;47.032;8.310;2023-12-28T02:50:37;0.10;99.90
46085;DHT22;31823;47.032;8.310;2023-12-28T02:53:04;0.00;99.90
46085;DHT22;31823;47.032;8.310;2023-12-28T02:55:29;0.10;99.90
46085;DHT22;31823;47.032;8.310;2023-12-28T02:57:56;0.10;99.90
46085;DHT22;31823;47.032;8.310;2023-12-28T03:00:25;0.20;99.90
46085;DHT22;31823;47.032;8.310;2023-12-28T03:02:51;0.20;99.90
46085;DHT22;31823;47.032;8.310;2023-12-28T03:05:17;0.20;99.90
46085;DHT22;31823;47.032;8.310;2023-12-28T03:07:43;0.20;99.90
46085;DHT22;31823;47.032;8.310;2023-12-28T03:10:09;0.10;99.90
46085;DHT22;31823;47.032;8.310;2023-12-28T03:12:36;0.10;99.90
46085;DHT22;31823;47.032;8.310;2023-12-28T03:15:03;0.20;99.90
46085;DHT22;31823;47.032;8.310;2023-12-28T03:17:28;0.20;99.90
46085;DHT22;31823;47.032;8.310;2023-12-28T03:19:58;0.10;99.90
46085;DHT22;31823;47.032;8.310;2023-12-28T03:22:23;0.10;99.90
46085;DHT22;31823;47.032;8.310;2023-12-28T03:24:49;0.10;99.90
46085;DHT22;31823;47.032;8.310;2023-12-28T03:27:15;0.00;99.90
46085;DHT22;31823;47.032;8.310;2023-12-28T03:29:44;0.00;99.90
46085;DHT22;31823;47.032;8.310;2023-12-28T03:32:10;0.00;99.90
46085;DHT22;31823;47.032;8.310;2023-12-28T03:34:35;-0.10;99.90
46085;DHT22;31823;47.032;8.310;2023-12-28T03:37:01;-0.20;99.90
46085;DHT22;31823;47.032;8.310;2023-12-28T03:39:27;-0.10;99.90
46085;DHT22;31823;47.032;8.310;2023-12-28T03:41:53;0.00;99.90
46085;DHT22;31823;47.032;8.310;2023-12-28T03:44:19;-0.10;99.90
46085;DHT22;31823;47.032;8.310;2023-12-28T03:46:49;-0.10;99.90
46085;DHT22;31823;47.032;8.310;2023-12-28T03:49:21;0.00;99.90
46085;DHT22;31823;47.032;8.310;2023-12-28T03:51:48;0.10;99.90
46085;DHT22;31823;47.032;8.310;2023-12-28T03:54:18;0.20;99.90
46085;DHT22;31823;47.032;8.310;2023-12-28T03:56:44;0.10;99.90
46085;DHT22;31823;47.032;8.310;2023-12-28T03:59:10;0.10;99.90
46085;DHT22;31823;47.032;8.310;2023-12-28T04:01:36;0.20;99.90
46085;DHT22;31823;47.032;8.310;2023-12-28T04:04:01;0.10;99.90
46085;DHT22;31823;47.032;8.310;2023-12-28T04:06:27;0.20;99.90
46085;DHT22;31823;47.032;8.310;2023-12-28T04:08:52;0.10;99.90
46085;DHT22;31823;47.032;8.310;2023-12-28T04:11:18;0.00;99.90
46085;DHT22;31823;47.032;8.310;2023-12-28T04:13:47;0.00;99.90
46085;DHT22;31823;47.032;8.310;2023-12-28T04:16:14;0.00;99.90
46085;DHT22;31823;47.032;8.310;2023-12-28T04:18:43;0.20;99.90
46085;DHT22;31823;47.032;8.310;2023-12-28T04:21:12;0.30;99.90
46085;DHT22;31823;47.032;8.310;2023-12-28T04:23:39;0.30;99.90
46085;DHT22;31823;47.032;8.310;2023-12-28T04:26:05;0.20;99.90
46085;DHT22;31823;47.032;8.310;2023-12-28T04:28:31;0.10;99.90
46085;DHT22;31823;47.032;8.310;2023-12-28T04:30:57;0.20;99.90
46085;DHT22;31823;47.032;8.310;2023-12-28T04:33:22;0.20;99.90
46085;DHT22;31823;47.032;8.310;2023-12-28T04:35:48;0.10;99.90
46085;DHT22;31823;47.032;8.310;2023-12-28T04:38:14;0.10;99.90
46085;DHT22;31823;47.032;8.310;2023-12-28T04:40:40;0.10;99.90
46085;DHT22;31823;47.032;8.310;2023-12-28T04:43:06;0.10;99.90
46085;DHT22;31823;47.032;8.310;2023-12-28T04:45:32;0.10;99.90
46085;DHT22;31823;47.032;8.310;2023-12-28T04:47:58;0.20;99.90
46085;DHT22;31823;47.032;8.310;2023-12-28T04:50:24;0.10;99.90
46085;DHT22;31823;47.032;8.310;2023-12-28T04:52:49;0.20;99.90
46085;DHT22;31823;47.032;8.310;2023-12-28T04:55:15;0.20;99.90
46085;DHT22;31823;47.032;8.310;2023-12-28T04:57:41;0.10;99.90
46085;DHT22;31823;47.032;8.310;2023-12-28T05:00:07;0.20;99.90
46085;DHT22;31823;47.032;8.310;2023-12-28T05:02:34;0.20;99.90
46085;DHT22;31823;47.032;8.310;2023-12-28T05:04:59;0.20;99.90
46085;DHT22;31823;47.032;8.310;2023-12-28T05:07:25;0.10;99.90
46085;DHT22;31823;47.032;8.310;2023-12-28T05:09:51;0.10;99.90
46085;DHT22;31823;47.032;8.310;2023-12-28T05:12:16;0.20;99.90
46085;DHT22;31823;47.032;8.310;2023-12-28T05:14:42;0.20;99.90
46085;DHT22;31823;47.032;8.310;2023-12-28T05:17:08;0.20;99.90
46085;DHT22;31823;47.032;8.310;2023-12-28T05:19:33;0.20;99.90
46085;DHT22;31823;47.032;8.310;2023-12-28T05:21:59;0.20;99.90
46085;DHT22;31823;47.032;8.310;2023-12-28T05:24:28;0.20;99.90
46085;DHT22;31823;47.032;8.310;2023-12-28T05:26:54;0.30;99.90
46085;DHT22;31823;47.032;8.310;2023-12-28T05:29:19;0.20;99.90
46085;DHT22;31823;47.032;8.310;2023-12-28T05:31:45;0.20;99.90
46085;DHT22;31823;47.032;8.310;2023-12-28T05:34:10;0.20;99.90
46085;DHT22;31823;47.032;8.310;2023-12-28T05:36:36;0.20;99.90
46085;DHT22;31823;47.032;8.310;2023-12-28T05:39:01;0.20;99.90
46085;DHT22;31823;47.032;8.310;2023-12-28T05:41:27;0.20;99.90
46085;DHT22;31823;47.032;8.310;2023-12-28T05:43:53;0.20;99.90
46085;DHT22;31823;47.032;8.310;2023-12-28T05:46:19;0.20;99.90
46085;DHT22;31823;47.032;8.310;2023-12-28T05:48:45;0.30;99.90
46085;DHT22;31823;47.032;8.310;2023-12-28T05:51:10;0.40;99.90
46085;DHT22;31823;47.032;8.310;2023-12-28T05:53:36;0.40;99.90
46085;DHT22;31823;47.032;8.310;2023-12-28T05:56:02;0.50;99.90
46085;DHT22;31823;47.032;8.310;2023-12-28T05:58:29;0.50;99.90
46085;DHT22;31823;47.032;8.310;2023-12-28T06:00:55;0.40;99.90
46085;DHT22;31823;47.032;8.310;2023-12-28T06:03:20;0.40;99.90
46085;DHT22;31823;47.032;8.310;2023-12-28T06:05:46;0.30;99.90
46085;DHT22;31823;47.032;8.310;2023-12-28T06:08:12;0.30;99.90
46085;DHT22;31823;47.032;8.310;2023-12-28T06:10:38;0.30;99.90
46085;DHT22;31823;47.032;8.310;2023-12-28T06:13:04;0.30;99.90
46085;DHT22;31823;47.032;8.310;2023-12-28T06:15:30;0.20;99.90
46085;DHT22;31823;47.032;8.310;2023-12-28T06:17:55;0.30;99.90
46085;DHT22;31823;47.032;8.310;2023-12-28T06:20:21;0.20;99.90
46085;DHT22;31823;47.032;8.310;2023-12-28T06:22:46;0.20;99.90
46085;DHT22;31823;47.032;8.310;2023-12-28T06:25:14;0.30;99.90
46085;DHT22;31823;47.032;8.310;2023-12-28T06:27:40;0.20;99.90
46085;DHT22;31823;47.032;8.310;2023-12-28T06:30:06;0.30;99.90
46085;DHT22;31823;47.032;8.310;2023-12-28T06:32:32;0.30;99.90
46085;DHT22;31823;47.032;8.310;2023-12-28T06:34:57;0.20;99.90
46085;DHT22;31823;47.032;8.310;2023-12-28T06:37:23;0.30;99.90
46085;DHT22;31823;47.032;8.310;2023-12-28T06:39:48;0.20;99.90
46085;DHT22;31823;47.032;8.310;2023-12-28T06:42:14;0.30;99.90
46085;DHT22;31823;47.032;8.310;2023-12-28T06:44:40;0.20;99.90
46085;DHT22;31823;47.032;8.310;2023-12-28T06:47:06;0.30;99.90
46085;DHT22;31823;47.032;8.310;2023-12-28T06:49:31;0.30;99.90
46085;DHT22;31823;47.032;8.310;2023-12-28T06:51:57;0.20;99.90
46085;DHT22;31823;47.032;8.310;2023-12-28T06:54:23;0.30;99.90
46085;DHT22;31823;47.032;8.310;2023-12-28T06:56:49;0.20;99.90
46085;DHT22;31823;47.032;8.310;2023-12-28T06:59:17;0.30;99.90
46085;DHT22;31823;47.032;8.310;2023-12-28T07:01:42;0.20;99.90
46085;DHT22;31823;47.032;8.310;2023-12-28T07:04:09;0.20;99.90
46085;DHT22;31823;47.032;8.310;2023-12-28T07:06:35;0.20;99.90
46085;DHT22;31823;47.032;8.310;2023-12-28T07:09:00;0.30;99.90
46085;DHT22;31823;47.032;8.310;2023-12-28T07:11:26;0.30;99.90
46085;DHT22;31823;47.032;8.310;2023-12-28T07:13:52;0.30;99.90
46085;DHT22;31823;47.032;8.310;2023-12-28T07:16:17;0.30;99.90
46085;DHT22;31823;47.032;8.310;2023-12-28T07:18:43;0.30;99.90
46085;DHT22;31823;47.032;8.310;2023-12-28T07:21:09;0.20;99.90
46085;DHT22;31823;47.032;8.310;2023-12-28T07:23:38;0.30;99.90
46085;DHT22;31823;47.032;8.310;2023-12-28T07:26:03;0.20;99.90
46085;DHT22;31823;47.032;8.310;2023-12-28T07:28:29;0.30;99.90
46085;DHT22;31823;47.032;8.310;2023-12-28T07:30:55;0.40;99.90
46085;DHT22;31823;47.032;8.310;2023-12-28T07:33:20;0.50;99.90
46085;DHT22;31823;47.032;8.310;2023-12-28T07:35:46;0.50;99.90
46085;DHT22;31823;47.032;8.310;2023-12-28T07:38:12;0.50;99.90
46085;DHT22;31823;47.032;8.310;2023-12-28T07:40:38;0.70;99.90
46085;DHT22;31823;47.032;8.310;2023-12-28T07:43:04;0.80;99.90
46085;DHT22;31823;47.032;8.310;2023-12-28T07:45:29;0.80;99.90
46085;DHT22;31823;47.032;8.310;2023-12-28T07:47:55;0.70;99.90
46085;DHT22;31823;47.032;8.310;2023-12-28T07:50:21;0.70;99.90
46085;DHT22;31823;47.032;8.310;2023-12-28T07:52:47;0.80;99.90
46085;DHT22;31823;47.032;8.310;2023-12-28T07:55:13;0.80;99.90
46085;DHT22;31823;47.032;8.310;2023-12-28T07:57:39;0.90;99.90
46085;DHT22;31823;47.032;8.310;2023-12-28T08:00:06;1.00;99.90
46085;DHT22;31823;47.032;8.310;2023-12-28T08:02:32;1.10;99.90
46085;DHT22;31823;47.032;8.310;2023-12-28T08:04:58;1.10;99.90
46085;DHT22;31823;47.032;8.310;2023-12-28T08:07:24;1.20;99.90
46085;DHT22;31823;47.032;8.310;2023-12-28T08:09:49;1.40;99.90
46085;DHT22;31823;47.032;8.310;2023-12-28T08:12:15;1.30;99.90
46085;DHT22;31823;47.032;8.310;2023-12-28T08:14:41;1.30;99.90
46085;DHT22;31823;47.032;8.310;2023-12-28T08:17:06;1.40;99.90
46085;DHT22;31823;47.032;8.310;2023-12-28T08:19:32;1.40;99.90
46085;DHT22;31823;47.032;8.310;2023-12-28T08:21:57;1.30;99.90
46085;DHT22;31823;47.032;8.310;2023-12-28T08:24:23;1.40;99.90
46085;DHT22;31823;47.032;8.310;2023-12-28T08:26:49;1.40;99.90
46085;DHT22;31823;47.032;8.310;2023-12-28T08:29:14;1.50;99.90
46085;DHT22;31823;47.032;8.310;2023-12-28T08:31:40;1.60;99.90
46085;DHT22;31823;47.032;8.310;2023-12-28T08:34:06;1.60;99.90
46085;DHT22;31823;47.032;8.310;2023-12-28T08:36:32;1.60;99.90
46085;DHT22;31823;47.032;8.310;2023-12-28T08:38:57;1.70;99.90
46085;DHT22;31823;47.032;8.310;2023-12-28T08:41:23;1.70;99.90
46085;DHT22;31823;47.032;8.310;2023-12-28T08:43:50;1.80;99.90
46085;DHT22;31823;47.032;8.310;2023-12-28T08:46:15;1.90;99.90
46085;DHT22;31823;47.032;8.310;2023-12-28T08:48:42;2.00;99.90
46085;DHT22;31823;47.032;8.310;2023-12-28T08:51:09;2.00;99.90
46085;DHT22;31823;47.032;8.310;2023-12-28T08:53:35;2.20;99.90
46085;DHT22;31823;47.032;8.310;2023-12-28T08:56:00;2.20;99.90
46085;DHT22;31823;47.032;8.310;2023-12-28T08:58:26;2.30;99.90
46085;DHT22;31823;47.032;8.310;2023-12-28T09:00:51;2.30;99.90
46085;DHT22;31823;47.032;8.310;2023-12-28T09:03:17;2.50;99.90
46085;DHT22;31823;47.032;8.310;2023-12-28T09:05:43;2.50;99.90
46085;DHT22;31823;47.032;8.310;2023-12-28T09:08:08;2.60;99.90
46085;DHT22;31823;47.032;8.310;2023-12-28T09:10:34;2.60;99.90
46085;DHT22;31823;47.032;8.310;2023-12-28T09:13:04;2.70;99.90
46085;DHT22;31823;47.032;8.310;2023-12-28T09:15:31;2.70;99.90
46085;DHT22;31823;47.032;8.310;2023-12-28T09:17:56;2.80;99.90
46085;DHT22;31823;47.032;8.310;2023-12-28T09:20:22;2.90;99.90
46085;DHT22;31823;47.032;8.310;2023-12-28T09:22:47;3.00;99.90
46085;DHT22;31823;47.032;8.310;2023-12-28T09:25:18;2.70;99.90
46085;DHT22;31823;47.032;8.310;2023-12-28T09:27:44;2.60;99.90
46085;DHT22;31823;47.032;8.310;2023-12-28T09:30:10;2.60;99.90
46085;DHT22;31823;47.032;8.310;2023-12-28T09:32:36;2.50;99.90
46085;DHT22;31823;47.032;8.310;2023-12-28T09:35:01;2.60;99.90
46085;DHT22;31823;47.032;8.310;2023-12-28T09:37:27;2.70;99.90
46085;DHT22;31823;47.032;8.310;2023-12-28T09:39:52;2.70;99.90
46085;DHT22;31823;47.032;8.310;2023-12-28T09:42:25;2.70;99.90
46085;DHT22;31823;47.032;8.310;2023-12-28T09:44:52;2.80;99.90
46085;DHT22;31823;47.032;8.310;2023-12-28T09:47:17;2.90;99.90
46085;DHT22;31823;47.032;8.310;2023-12-28T09:49:43;2.90;99.90
46085;DHT22;31823;47.032;8.310;2023-12-28T09:52:09;2.90;99.90
46085;DHT22;31823;47.032;8.310;2023-12-28T09:54:35;3.00;99.90
46085;DHT22;31823;47.032;8.310;2023-12-28T09:57:01;3.00;99.90
46085;DHT22;31823;47.032;8.310;2023-12-28T09:59:27;3.10;99.90
46085;DHT22;31823;47.032;8.310;2023-12-28T10:01:54;3.20;99.90
46085;DHT22;31823;47.032;8.310;2023-12-28T10:04:21;3.20;99.90
46085;DHT22;31823;47.032;8.310;2023-12-28T10:06:50;3.30;99.90
46085;DHT22;31823;47.032;8.310;2023-12-28T10:09:16;3.30;99.90
46085;DHT22;31823;47.032;8.310;2023-12-28T10:11:42;3.40;99.90
46085;DHT22;31823;47.032;8.310;2023-12-28T10:14:09;3.40;99.90
46085;DHT22;31823;47.032;8.310;2023-12-28T10:16:34;3.50;99.90
46085;DHT22;31823;47.032;8.310;2023-12-28T10:19:00;3.50;99.90
46085;DHT22;31823;47.032;8.310;2023-12-28T10:21:26;3.60;99.90
46085;DHT22;31823;47.032;8.310;2023-12-28T10:23:51;3.70;99.90
46085;DHT22;31823;47.032;8.310;2023-12-28T10:26:21;3.80;99.90
46085;DHT22;31823;47.032;8.310;2023-12-28T10:28:46;3.80;99.90
46085;DHT22;31823;47.032;8.310;2023-12-28T10:31:12;3.80;99.90
46085;DHT22;31823;47.032;8.310;2023-12-28T10:33:39;3.70;99.90
46085;DHT22;31823;47.032;8.310;2023-12-28T10:36:07;3.60;99.90
46085;DHT22;31823;47.032;8.310;2023-12-28T10:38:35;3.60;99.90
46085;DHT22;31823;47.032;8.310;2023-12-28T10:41:06;3.70;99.90
46085;DHT22;31823;47.032;8.310;2023-12-28T10:46:08;3.90;99.90
46085;DHT22;31823;47.032;8.310;2023-12-28T10:48:38;4.00;99.90
46085;DHT22;31823;47.032;8.310;2023-12-28T10:51:08;4.10;99.90
46085;DHT22;31823;47.032;8.310;2023-12-28T10:53:53;4.10;99.90
46085;DHT22;31823;47.032;8.310;2023-12-28T10:56:56;4.10;99.90
46085;DHT22;31823;47.032;8.310;2023-12-28T11:00:00;4.20;99.90
46085;DHT22;31823;47.032;8.310;2023-12-28T11:02:31;4.20;99.90
46085;DHT22;31823;47.032;8.310;2023-12-28T11:05:00;4.30;99.90
46085;DHT22;31823;47.032;8.310;2023-12-28T11:07:28;4.40;99.90
46085;DHT22;31823;47.032;8.310;2023-12-28T11:10:00;4.40;99.90
46085;DHT22;31823;47.032;8.310;2023-12-28T11:12:27;4.40;99.90
46085;DHT22;31823;47.032;8.310;2023-12-28T11:14:54;4.40;99.90
46085;DHT22;31823;47.032;8.310;2023-12-28T11:17:22;4.50;99.90
46085;DHT22;31823;47.032;8.310;2023-12-28T11:19:50;4.50;99.90
46085;DHT22;31823;47.032;8.310;2023-12-28T11:22:18;4.60;99.90
46085;DHT22;31823;47.032;8.310;2023-12-28T11:24:44;4.60;99.90
46085;DHT22;31823;47.032;8.310;2023-12-28T11:27:10;4.70;99.90
46085;DHT22;31823;47.032;8.310;2023-12-28T11:29:37;4.70;99.90
46085;DHT22;31823;47.032;8.310;2023-12-28T11:32:02;4.80;99.90
46085;DHT22;31823;47.032;8.310;2023-12-28T11:34:29;4.80;99.90
46085;DHT22;31823;47.032;8.310;2023-12-28T11:36:56;4.90;99.90
46085;DHT22;31823;47.032;8.310;2023-12-28T11:39:30;4.90;99.90
46085;DHT22;31823;47.032;8.310;2023-12-28T11:42:03;4.90;99.90
46085;DHT22;31823;47.032;8.310;2023-12-28T11:44:30;4.90;99.90
46085;DHT22;31823;47.032;8.310;2023-12-28T11:46:56;4.90;99.90
46085;DHT22;31823;47.032;8.310;2023-12-28T11:49:26;5.00;99.90
46085;DHT22;31823;47.032;8.310;2023-12-28T11:51:56;5.00;99.90
46085;DHT22;31823;47.032;8.310;2023-12-28T11:54:24;5.10;99.90
46085;DHT22;31823;47.032;8.310;2023-12-28T11:56:49;5.10;99.90
46085;DHT22;31823;47.032;8.310;2023-12-28T11:59:15;5.20;99.90
46085;DHT22;31823;47.032;8.310;2023-12-28T12:01:41;5.30;99.90
46085;DHT22;31823;47.032;8.310;2023-12-28T12:04:06;5.40;99.90
46085;DHT22;31823;47.032;8.310;2023-12-28T12:06:32;5.40;99.90
46085;DHT22;31823;47.032;8.310;2023-12-28T12:08:58;5.40;99.90
46085;DHT22;31823;47.032;8.310;2023-12-28T12:11:24;5.40;99.90
46085;DHT22;31823;47.032;8.310;2023-12-28T12:13:51;5.50;99.90
46085;DHT22;31823;47.032;8.310;2023-12-28T12:16:17;5.60;99.90
46085;DHT22;31823;47.032;8.310;2023-12-28T12:18:43;5.50;99.90
46085;DHT22;31823;47.032;8.310;2023-12-28T12:21:09;5.60;99.90
46085;DHT22;31823;47.032;8.310;2023-12-28T12:23:34;5.70;99.90
46085;DHT22;31823;47.032;8.310;2023-12-28T12:26:00;5.80;99.90
46085;DHT22;31823;47.032;8.310;2023-12-28T12:28:26;5.80;99.90
46085;DHT22;31823;47.032;8.310;2023-12-28T12:30:56;5.80;99.90
46085;DHT22;31823;47.032;8.310;2023-12-28T12:33:24;6.00;99.90
46085;DHT22;31823;47.032;8.310;2023-12-28T12:35:51;5.90;99.90
46085;DHT22;31823;47.032;8.310;2023-12-28T12:38:17;5.80;99.90
46085;DHT22;31823;47.032;8.310;2023-12-28T12:40:43;5.90;99.90
46085;DHT22;31823;47.032;8.310;2023-12-28T12:43:09;5.90;99.90
46085;DHT22;31823;47.032;8.310;2023-12-28T12:45:35;6.00;99.90
46085;DHT22;31823;47.032;8.310;2023-12-28T12:48:02;6.00;99.90
46085;DHT22;31823;47.032;8.310;2023-12-28T12:50:29;6.20;99.90
46085;DHT22;31823;47.032;8.310;2023-12-28T12:52:55;6.20;99.90
46085;DHT22;31823;47.032;8.310;2023-12-28T12:55:20;6.30;99.90
46085;DHT22;31823;47.032;8.310;2023-12-28T12:57:47;6.20;99.90
46085;DHT22;31823;47.032;8.310;2023-12-28T13:00:13;6.20;99.90
46085;DHT22;31823;47.032;8.310;2023-12-28T13:02:38;6.30;99.90
46085;DHT22;31823;47.032;8.310;2023-12-28T13:05:05;6.30;99.90
46085;DHT22;31823;47.032;8.310;2023-12-28T13:07:33;6.30;99.90
46085;DHT22;31823;47.032;8.310;2023-12-28T13:09:59;6.30;99.90
46085;DHT22;31823;47.032;8.310;2023-12-28T13:12:25;6.20;99.90
46085;DHT22;31823;47.032;8.310;2023-12-28T13:14:51;6.20;99.90
46085;DHT22;31823;47.032;8.310;2023-12-28T13:17:16;6.20;99.90
46085;DHT22;31823;47.032;8.310;2023-12-28T13:19:42;6.20;99.90
46085;DHT22;31823;47.032;8.310;2023-12-28T13:22:08;6.30;99.90
46085;DHT22;31823;47.032;8.310;2023-12-28T13:24:33;6.20;99.90
46085;DHT22;31823;47.032;8.310;2023-12-28T13:26:59;6.30;99.90
46085;DHT22;31823;47.032;8.310;2023-12-28T13:29:26;6.30;99.90
46085;DHT22;31823;47.032;8.310;2023-12-28T13:31:51;6.20;99.90
46085;DHT22;31823;47.032;8.310;2023-12-28T13:34:18;6.20;99.90
46085;DHT22;31823;47.032;8.310;2023-12-28T13:36:48;6.20;99.90
46085;DHT22;31823;47.032;8.310;2023-12-28T13:39:14;6.20;99.90
46085;DHT22;31823;47.032;8.310;2023-12-28T13:41:43;6.20;99.90
46085;DHT22;31823;47.032;8.310;2023-12-28T13:44:08;6.20;99.90
46085;DHT22;31823;47.032;8.310;2023-12-28T13:46:38;6.10;99.90
46085;DHT22;31823;47.032;8.310;2023-12-28T13:49:04;6.10;99.90
46085;DHT22;31823;47.032;8.310;2023-12-28T13:51:31;6.10;99.90
46085;DHT22;31823;47.032;8.310;2023-12-28T13:53:57;6.10;99.90
46085;DHT22;31823;47.032;8.310;2023-12-28T13:56:23;6.10;99.90
46085;DHT22;31823;47.032;8.310;2023-12-28T13:58:48;6.10;99.90
46085;DHT22;31823;47.032;8.310;2023-12-28T14:01:14;6.10;99.90
46085;DHT22;31823;47.032;8.310;2023-12-28T14:03:40;6.00;99.90
46085;DHT22;31823;47.032;8.310;2023-12-28T14:06:06;5.90;99.90
46085;DHT22;31823;47.032;8.310;2023-12-28T14:08:32;6.00;99.90
46085;DHT22;31823;47.032;8.310;2023-12-28T14:10:57;5.90;99.90
46085;DHT22;31823;47.032;8.310;2023-12-28T14:13:23;5.90;99.90
46085;DHT22;31823;47.032;8.310;2023-12-28T14:15:49;5.80;99.90
46085;DHT22;31823;47.032;8.310;2023-12-28T14:18:14;5.80;99.90
46085;DHT22;31823;47.032;8.310;2023-12-28T14:20:40;5.70;99.90
46085;DHT22;31823;47.032;8.310;2023-12-28T14:23:06;5.70;99.90
46085;DHT22;31823;47.032;8.310;2023-12-28T14:25:31;5.70;99.90
46085;DHT22;31823;47.032;8.310;2023-12-28T14:27:57;5.70;99.90
46085;DHT22;31823;47.032;8.310;2023-12-28T14:30:23;5.60;99.90
46085;DHT22;31823;47.032;8.310;2023-12-28T14:32:49;5.50;99.90
46085;DHT22;31823;47.032;8.310;2023-12-28T14:35:15;5.50;99.90
46085;DHT22;31823;47.032;8.310;2023-12-28T14:37:43;5.50;99.90
46085;DHT22;31823;47.032;8.310;2023-12-28T14:40:10;5.50;99.90
46085;DHT22;31823;47.032;8.310;2023-12-28T14:42:37;5.50;99.90
46085;DHT22;31823;47.032;8.310;2023-12-28T14:45:03;5.50;99.90
46085;DHT22;31823;47.032;8.310;2023-12-28T14:47:29;5.40;99.90
46085;DHT22;31823;47.032;8.310;2023-12-28T14:49:54;5.40;99.90
46085;DHT22;31823;47.032;8.310;2023-12-28T14:52:21;5.30;99.90
46085;DHT22;31823;47.032;8.310;2023-12-28T14:54:46;5.30;99.90
46085;DHT22;31823;47.032;8.310;2023-12-28T14:57:15;5.30;99.90
46085;DHT22;31823;47.032;8.310;2023-12-28T14:59:40;5.30;99.90
46085;DHT22;31823;47.032;8.310;2023-12-28T15:02:06;5.30;99.90
46085;DHT22;31823;47.032;8.310;2023-12-28T15:04:32;5.40;99.90
46085;DHT22;31823;47.032;8.310;2023-12-28T15:06:59;5.40;99.90
46085;DHT22;31823;47.032;8.310;2023-12-28T15:09:24;5.40;99.90
46085;DHT22;31823;47.032;8.310;2023-12-28T15:11:50;5.40;99.90
46085;DHT22;31823;47.032;8.310;2023-12-28T15:14:16;5.40;99.90
46085;DHT22;31823;47.032;8.310;2023-12-28T15:16:42;5.30;99.90
46085;DHT22;31823;47.032;8.310;2023-12-28T15:19:08;5.30;99.90
46085;DHT22;31823;47.032;8.310;2023-12-28T15:21:33;5.30;99.90
46085;DHT22;31823;47.032;8.310;2023-12-28T15:24:00;5.20;99.90
46085;DHT22;31823;47.032;8.310;2023-12-28T15:26:27;5.20;99.90
46085;DHT22;31823;47.032;8.310;2023-12-28T15:28:52;5.20;99.90
46085;DHT22;31823;47.032;8.310;2023-12-28T15:31:18;5.20;99.90
46085;DHT22;31823;47.032;8.310;2023-12-28T15:33:44;5.10;99.90
46085;DHT22;31823;47.032;8.310;2023-12-28T15:36:09;5.00;99.90
46085;DHT22;31823;47.032;8.310;2023-12-28T15:38:36;5.00;99.90
46085;DHT22;31823;47.032;8.310;2023-12-28T15:41:02;4.90;99.90
46085;DHT22;31823;47.032;8.310;2023-12-28T15:43:27;4.90;99.90
46085;DHT22;31823;47.032;8.310;2023-12-28T15:45:53;4.80;99.90
46085;DHT22;31823;47.032;8.310;2023-12-28T15:48:18;4.80;99.90